Time;durP1;ratioP1;P1;durP2;ratioP2;P2;SDS_P1;SDS_P2;PMS_P1;PMS_P2;Temp;Humidity;BMP_temperature;BMP_pressure;BME280_temperature;BME280_humidity;BME280_pressure;Samples;Min_cycle;Max_cycle;Signal;HPM_P1;HPM_P2
2023/01/18 05:22:33;;;;;;;5.38;2.63;;;;;;;0.37;100.00;97733.31;5109313;27;20331;-65
2023/01/18 05:24:59;;;;;;;6.80;3.20;;;;;;;0.36;100.00;97735.13;5109395;28;20510;-65
2023/01/18 05:27:24;;;;;;;5.00;3.13;;;;;;;0.42;100.00;97741.50;5108928;28;20044;-66
2023/01/18 05:29:49;;;;;;;4.18;3.47;;;;;;;0.42;100.00;97744.13;5109062;28;20093;-65
2023/01/18 05:32:16;;;;;;;6.05;3.75;;;;;;;0.39;100.00;97758.38;5107895;28;20035;-64
2023/01/18 05:34:42;;;;;;;5.28;3.70;;;;;;;0.40;100.00;97759.19;5112145;22;20135;-62
2023/01/18 05:37:09;;;;;;;3.47;2.72;;;;;;;0.35;100.00;97770.16;5088314;28;20039;-64
2023/01/18 05:39:34;;;;;;;6.07;3.03;;;;;;;0.40;100.00;97775.72;5088534;28;20178;-64
2023/01/18 05:42:00;;;;;;;5.53;3.33;;;;;;;0.42;100.00;97771.13;5088709;28;20059;-61
2023/01/18 05:44:25;;;;;;;7.78;3.25;;;;;;;0.38;100.00;97782.09;5097417;28;20051;-62
2023/01/18 05:46:50;;;;;;;4.82;3.00;;;;;;;0.42;100.00;97789.44;5108880;28;20050;-66
2023/01/18 05:49:16;;;;;;;6.25;2.33;;;;;;;0.44;100.00;97792.72;5108576;28;20464;-63
2023/01/18 05:51:41;;;;;;;7.47;2.97;;;;;;;0.45;100.00;97791.72;5108757;28;20035;-62
2023/01/18 05:54:07;;;;;;;5.03;2.65;;;;;;;0.46;100.00;97803.03;5107402;28;20035;-64
2023/01/18 05:56:32;;;;;;;6.97;3.20;;;;;;;0.32;100.00;97788.00;5108599;28;20148;-62
2023/01/18 05:58:58;;;;;;;4.50;2.78;;;;;;;0.38;100.00;97797.81;5108239;28;20027;-62
2023/01/18 06:01:23;;;;;;;6.18;3.25;;;;;;;0.41;100.00;97800.91;5108626;28;20040;-64
2023/01/18 06:03:49;;;;;;;8.45;2.42;;;;;;;0.41;100.00;97805.34;5108386;28;20039;-64
2023/01/18 06:06:15;;;;;;;5.10;3.17;;;;;;;0.39;100.00;97809.91;5108497;28;20036;-62
2023/01/18 06:08:41;;;;;;;4.60;2.55;;;;;;;0.45;100.00;97823.16;5108135;28;20040;-63
2023/01/18 06:11:07;;;;;;;10.00;3.13;;;;;;;0.44;100.00;97823.31;5108272;28;20047;-63
2023/01/18 06:13:32;;;;;;;5.60;3.10;;;;;;;0.52;100.00;97833.78;5108275;28;22322;-61
2023/01/18 06:15:59;;;;;;;5.18;2.30;;;;;;;0.53;100.00;97840.69;5107130;28;20463;-62
2023/01/18 06:18:27;;;;;;;5.93;3.75;;;;;;;0.52;100.00;97849.50;5107883;28;20036;-62
2023/01/18 06:20:56;;;;;;;5.82;3.03;;;;;;;0.56;100.00;97850.81;5108227;28;20031;-62
2023/01/18 06:23:22;;;;;;;5.93;3.10;;;;;;;0.58;100.00;97854.06;5108094;28;20417;-66
2023/01/18 06:25:48;;;;;;;3.13;2.60;;;;;;;0.61;100.00;97864.22;5107981;28;20112;-65
2023/01/18 06:28:14;;;;;;;7.07;3.47;;;;;;;0.62;100.00;97862.41;5106527;28;20038;-63
2023/01/18 06:30:41;;;;;;;5.07;3.03;;;;;;;0.59;100.00;97874.06;5107800;28;20040;-67
2023/01/18 06:33:08;;;;;;;5.30;3.67;;;;;;;0.57;100.00;97876.00;5097476;28;20055;-67
2023/01/18 06:35:34;;;;;;;4.63;3.00;;;;;;;0.56;100.00;97886.66;5092892;28;20397;-68
2023/01/18 06:38:02;;;;;;;10.45;3.70;;;;;;;0.54;100.00;97890.28;5093932;28;20040;-68
2023/01/18 06:40:27;;;;;;;7.55;3.33;;;;;;;0.49;100.00;97895.19;5094269;28;20104;-68
2023/01/18 06:42:53;;;;;;;7.18;3.58;;;;;;;0.54;100.00;97898.13;5094102;28;20097;-67
2023/01/18 06:45:20;;;;;;;5.35;2.63;;;;;;;0.55;100.00;97901.56;5094030;28;20051;-67
2023/01/18 06:47:48;;;;;;;7.03;3.38;;;;;;;0.54;100.00;97906.00;5093887;28;20439;-59
2023/01/18 06:50:14;;;;;;;5.23;2.63;;;;;;;0.59;100.00;97907.28;5094147;28;20036;-58
2023/01/18 06:52:41;;;;;;;6.65;2.83;;;;;;;0.56;100.00;97916.31;5092651;28;20289;-59
2023/01/18 06:55:07;;;;;;;3.57;2.77;;;;;;;0.54;100.00;97921.72;5093919;28;20078;-58
2023/01/18 06:57:32;;;;;;;3.97;2.85;;;;;;;0.50;100.00;97919.59;5093732;28;20120;-57
2023/01/18 06:59:59;;;;;;;8.60;3.47;;;;;;;0.53;100.00;97932.38;5093911;28;20583;-57
2023/01/18 07:02:25;;;;;;;6.70;3.05;;;;;;;0.52;100.00;97939.41;5093934;28;20507;-66
2023/01/18 07:04:50;;;;;;;10.20;3.42;;;;;;;0.54;100.00;97936.63;5092420;28;20044;-66
2023/01/18 07:07:16;;;;;;;7.97;3.45;;;;;;;0.60;100.00;97935.16;5093525;28;20128;-67
2023/01/18 07:09:41;;;;;;;6.43;3.60;;;;;;;0.57;100.00;97941.50;5093800;28;20043;-67
2023/01/18 07:12:07;;;;;;;5.88;2.97;;;;;;;0.61;100.00;97947.25;5093702;28;20036;-66
2023/01/18 07:14:32;;;;;;;7.90;3.80;;;;;;;0.59;100.00;97955.28;5092255;28;20036;-66
2023/01/18 07:16:57;;;;;;;4.20;2.85;;;;;;;0.46;100.00;97957.59;5093428;28;20051;-66
2023/01/18 07:19:23;;;;;;;6.32;3.25;;;;;;;0.56;100.00;97960.84;5093435;28;20040;-66
2023/01/18 07:21:50;;;;;;;8.32;3.83;;;;;;;0.57;100.00;97965.09;5093380;28;20040;-66
2023/01/18 07:24:17;;;;;;;6.60;2.92;;;;;;;0.62;100.00;97967.22;5093406;28;20103;-66
2023/01/18 07:26:42;;;;;;;14.35;3.75;;;;;;;0.56;100.00;97968.69;5093383;28;20032;-66
2023/01/18 07:29:08;;;;;;;8.20;3.78;;;;;;;0.56;100.00;97975.75;5093089;28;20070;-66
2023/01/18 07:31:33;;;;;;;5.82;3.33;;;;;;;0.52;100.00;97977.88;5093291;28;20500;-66
2023/01/18 07:33:59;;;;;;;2.97;2.67;;;;;;;0.48;100.00;97987.88;5091858;28;20507;-66
2023/01/18 07:36:24;;;;;;;5.30;2.95;;;;;;;0.49;100.00;97986.06;5091838;28;20272;-66
2023/01/18 07:38:51;;;;;;;7.85;3.40;;;;;;;0.49;100.00;97986.88;5092765;28;20035;-67
2023/01/18 07:41:16;;;;;;;9.25;2.95;;;;;;;0.44;100.00;97993.59;5093456;28;20372;-66
2023/01/18 07:43:44;;;;;;;4.03;3.10;;;;;;;0.40;100.00;97992.28;5092517;28;20028;-66
2023/01/18 07:46:12;;;;;;;3.83;2.55;;;;;;;0.47;100.00;97993.28;5092666;28;20061;-66
2023/01/18 07:48:37;;;;;;;;;;;;;;;0.50;100.00;97998.19;5091913;28;20491;-66
2023/01/18 07:51:05;;;;;;;5.32;2.90;;;;;;;0.51;100.00;97997.19;5091599;28;19924;-66
2023/01/18 07:53:33;;;;;;;6.25;2.92;;;;;;;0.46;100.00;97997.69;5092877;28;20036;-66
2023/01/18 07:56:03;;;;;;;5.53;3.45;;;;;;;0.46;100.00;97999.50;5092989;28;20050;-67
2023/01/18 07:58:29;;;;;;;7.13;2.95;;;;;;;0.46;100.00;98005.56;5092774;28;20406;-66
2023/01/18 08:00:54;;;;;;;7.03;4.15;;;;;;;0.41;100.00;98020.13;5092833;28;20024;-65
2023/01/18 08:03:20;;;;;;;6.53;3.38;;;;;;;0.38;100.00;98021.25;5092663;28;20431;-65
2023/01/18 08:05:46;;;;;;;8.30;3.95;;;;;;;0.41;100.00;98015.69;5092602;28;20048;-65
2023/01/18 08:08:15;;;;;;;7.22;3.67;;;;;;;0.42;100.00;98027.81;5092483;28;20032;-66
2023/01/18 08:10:42;;;;;;;5.75;3.50;;;;;;;0.45;100.00;98032.72;5092469;28;20036;-66
2023/01/18 08:13:10;;;;;;;8.40;3.65;;;;;;;0.42;100.00;98037.47;5092439;28;20118;-65
2023/01/18 08:15:39;;;;;;;7.97;3.80;;;;;;;0.38;100.00;98036.16;5092563;28;20043;-65
2023/01/18 08:18:05;;;;;;;6.40;4.18;;;;;;;0.43;100.00;98050.41;5092158;28;20496;-65
2023/01/18 08:20:31;;;;;;;6.43;3.65;;;;;;;0.47;100.00;98053.53;5092641;28;20346;-66
2023/01/18 08:22:58;;;;;;;7.53;3.72;;;;;;;0.53;100.00;98061.56;5092284;28;20036;-66
2023/01/18 08:25:28;;;;;;;10.95;3.67;;;;;;;0.56;100.00;98062.22;5092274;28;20039;-65
2023/01/18 08:27:59;;;;;;;7.78;4.22;;;;;;;0.53;100.00;98074.66;5091962;28;20040;-65
2023/01/18 08:30:30;;;;;;;6.07;4.18;;;;;;;0.53;100.00;98076.47;5090941;28;20039;-65
2023/01/18 08:32:58;;;;;;;6.78;3.90;;;;;;;0.59;100.00;98075.81;5092148;28;20067;-66
2023/01/18 08:35:27;;;;;;;;;;;;;;;0.64;100.00;98093.66;5092427;28;20040;-66
2023/01/18 08:37:53;;;;;;;6.20;3.30;;;;;;;0.67;100.00;98099.41;5091792;28;19919;-67
2023/01/18 08:40:20;;;;;;;5.25;3.42;;;;;;;0.66;100.00;98097.75;5092243;28;20035;-66
2023/01/18 08:42:46;;;;;;;5.97;4.20;;;;;;;0.70;100.00;98099.06;5091975;28;20051;-66
2023/01/18 08:45:13;;;;;;;8.57;3.55;;;;;;;0.76;100.00;98101.03;5090673;28;20043;-66
2023/01/18 08:47:39;;;;;;;5.30;3.50;;;;;;;0.76;100.00;98106.28;5091750;28;20496;-66
2023/01/18 08:50:06;;;;;;;4.45;2.45;;;;;;;0.81;100.00;98111.03;5092035;28;20043;-66
2023/01/18 08:52:33;;;;;;;8.82;3.53;;;;;;;0.82;100.00;98112.66;5090554;28;20040;-66
2023/01/18 08:55:00;;;;;;;5.55;3.42;;;;;;;0.90;100.00;98124.94;5091487;28;20075;-66
2023/01/18 08:57:29;;;;;;;6.28;3.25;;;;;;;0.91;100.00;98122.16;5091643;28;20121;-66
2023/01/18 08:59:55;;;;;;;7.25;4.10;;;;;;;0.84;100.00;98126.41;5092002;28;20710;-65
2023/01/18 09:02:21;;;;;;;11.57;3.55;;;;;;;0.92;100.00;98136.94;5093540;28;20105;-66
2023/01/18 09:04:50;;;;;;;6.82;3.72;;;;;;;0.93;100.00;98135.94;5092825;28;20063;-66
2023/01/18 09:07:16;;;;;;;7.05;3.70;;;;;;;0.97;100.00;98133.81;5091910;28;20130;-67
2023/01/18 09:09:43;;;;;;;5.68;3.55;;;;;;;0.96;100.00;98140.03;5092690;28;20044;-66
2023/01/18 09:12:12;;;;;;;8.33;4.10;;;;;;;1.04;100.00;98150.50;5091616;28;20165;-66
2023/01/18 09:14:38;;;;;;;7.82;4.28;;;;;;;1.07;100.00;98158.06;5091576;28;20032;-65
2023/01/18 09:17:04;;;;;;;7.30;3.50;;;;;;;1.15;100.00;98163.31;5091803;28;20129;-65
2023/01/18 09:19:29;;;;;;;5.47;3.97;;;;;;;1.18;100.00;98168.25;5091426;28;20093;-65
2023/01/18 09:21:55;;;;;;;8.88;3.38;;;;;;;1.21;100.00;98172.34;5091536;28;20503;-65
2023/01/18 09:24:21;;;;;;;6.03;3.55;;;;;;;1.17;100.00;98163.13;5091671;28;20046;-65
2023/01/18 09:26:49;;;;;;;4.03;2.90;;;;;;;1.29;100.00;98173.13;5091652;28;20040;-64
2023/01/18 09:29:15;;;;;;;6.82;4.00;;;;;;;1.33;100.00;98184.94;5091207;28;20073;-64
2023/01/18 09:31:40;;;;;;;3.47;2.88;;;;;;;1.34;100.00;98186.59;5091427;28;20040;-65
2023/01/18 09:34:06;;;;;;;5.45;3.50;;;;;;;1.41;100.00;98191.19;5091146;28;20385;-65
2023/01/18 09:36:32;;;;;;;5.47;3.30;;;;;;;1.34;100.00;98186.59;5090245;28;20032;-65
2023/01/18 09:38:57;;;;;;;5.45;2.78;;;;;;;1.45;100.00;98195.94;5089906;28;20040;-65
2023/01/18 09:41:33;;;;;;;7.90;3.28;;;;;;;1.53;100.00;98202.97;5091225;28;20059;-66
2023/01/18 09:44:05;;;;;;;4.07;2.72;;;;;;;1.58;100.00;98209.38;5091508;28;20361;-66
2023/01/18 09:46:35;;;;;;;5.05;3.15;;;;;;;1.71;100.00;98208.88;5091315;28;20079;-66
2023/01/18 09:49:01;;;;;;;6.43;2.85;;;;;;;1.78;100.00;98215.09;5090987;28;20040;-66
2023/01/18 09:51:35;;;;;;;5.72;2.78;;;;;;;1.92;100.00;98223.28;5091172;28;20040;-66
2023/01/18 09:54:08;;;;;;;4.70;2.53;;;;;;;1.99;100.00;98222.44;5091179;28;20036;-65
2023/01/18 09:56:56;;;;;;;4.80;2.92;;;;;;;2.00;100.00;98233.75;5091443;28;20115;-65
2023/01/18 09:59:41;;;;;;;6.47;3.47;;;;;;;1.99;100.00;98232.94;5090827;28;20070;-64
2023/01/18 10:02:22;;;;;;;8.10;4.00;;;;;;;2.01;100.00;98240.63;5091125;28;20039;-62
2023/01/18 10:04:57;;;;;;;7.25;3.70;;;;;;;2.04;100.00;98246.41;5091108;28;20039;-65
2023/01/18 10:07:26;;;;;;;8.82;2.85;;;;;;;2.04;100.00;98248.19;5091419;28;20032;-65
2023/01/18 10:09:57;;;;;;;10.60;4.65;;;;;;;1.92;100.00;98241.66;5094763;28;20097;-65
2023/01/18 10:12:38;;;;;;;10.60;4.75;;;;;;;1.87;100.00;98250.84;5094860;28;20082;-65
2023/01/18 10:15:16;;;;;;;8.82;4.55;;;;;;;1.73;100.00;98259.41;5094740;28;20043;-65
2023/01/18 10:17:43;;;;;;;7.88;4.13;;;;;;;1.90;100.00;98262.84;5094373;28;20529;-65
2023/01/18 10:20:27;;;;;;;9.10;4.28;;;;;;;2.03;100.00;98257.91;5094534;28;20070;-65
2023/01/18 10:23:07;;;;;;;7.78;4.47;;;;;;;2.19;100.00;98264.91;5094942;28;20036;-64
2023/01/18 10:25:41;;;;;;;7.15;4.10;;;;;;;2.40;100.00;98272.22;5094451;28;20036;-63
2023/01/18 10:28:38;;;;;;;8.25;4.50;;;;;;;2.69;100.00;98264.59;5094328;28;20044;-65
2023/01/18 10:31:22;;;;;;;9.13;5.07;;;;;;;3.15;100.00;98269.13;5094379;28;20427;-65
2023/01/18 10:33:54;;;;;;;8.05;4.30;;;;;;;3.64;100.00;98268.75;5094391;28;20204;-65
2023/01/18 10:36:37;;;;;;;10.30;5.60;;;;;;;3.88;100.00;98273.00;5094484;28;20494;-66
2023/01/18 10:39:14;;;;;;;7.78;4.78;;;;;;;4.35;100.00;98270.06;5093949;28;20043;-65
2023/01/18 10:41:42;;;;;;;8.32;4.45;;;;;;;4.41;98.12;98276.44;5094226;28;20042;-65
2023/01/18 10:44:08;;;;;;;;;;;;;;;4.43;99.75;98274.41;5094603;28;20044;-65
2023/01/18 10:46:33;;;;;;;9.40;4.60;;;;;;;4.40;96.91;98266.88;5094039;28;19915;-65
2023/01/18 10:48:59;;;;;;;6.70;3.80;;;;;;;4.38;97.10;98268.91;5093922;28;20044;-63
2023/01/18 10:51:27;;;;;;;6.97;4.55;;;;;;;4.46;99.09;98272.25;5094043;28;20492;-65
2023/01/18 10:53:53;;;;;;;9.30;4.55;;;;;;;4.35;97.31;98277.97;5092702;28;20128;-64
2023/01/18 10:56:25;;;;;;;6.72;4.00;;;;;;;4.55;95.17;98268.50;5094310;28;20052;-64
2023/01/18 10:58:53;;;;;;;8.80;3.78;;;;;;;4.79;97.45;98277.97;5093652;28;20043;-65
2023/01/18 11:01:21;;;;;;;10.45;5.30;;;;;;;5.21;95.43;98283.50;5093878;28;20044;-61
2023/01/18 11:03:50;;;;;;;9.50;4.43;;;;;;;5.53;89.06;98279.56;5093718;28;20463;-65
2023/01/18 11:06:18;;;;;;;7.07;3.83;;;;;;;5.60;89.26;98286.56;5093813;28;20547;-65
2023/01/18 11:08:43;;;;;;;;;;;;;;;5.28;90.21;98293.16;5093964;28;20089;-63
2023/01/18 11:14:27;;;;;;;5.35;4.00;;;;;;;4.74;93.30;98295.34;5093662;28;20107;-65
2023/01/18 11:17:02;;;;;;;5.93;4.40;;;;;;;4.54;94.37;98298.53;5093565;28;20157;-65
2023/01/18 11:19:28;;;;;;;8.70;4.53;;;;;;;4.27;96.61;98301.78;5093210;28;20065;-64
2023/01/18 11:21:54;;;;;;;5.80;3.90;;;;;;;4.12;98.92;98308.84;5093673;28;20047;-62
2023/01/18 11:24:28;;;;;;;9.88;4.43;;;;;;;4.05;96.58;98303.50;5093380;28;20032;-64
2023/01/18 11:27:11;;;;;;;7.93;4.07;;;;;;;3.96;97.75;98308.00;5093420;28;20055;-64
2023/01/18 11:29:41;;;;;;;6.85;3.70;;;;;;;4.11;100.00;98321.22;5093382;28;20044;-63
2023/01/18 11:32:25;;;;;;;6.85;4.03;;;;;;;4.09;97.29;98313.47;5093493;28;20031;-62
2023/01/18 11:34:57;;;;;;;9.85;3.80;;;;;;;3.98;99.83;98313.09;5093645;28;20036;-65
2023/01/18 11:37:33;;;;;;;8.90;3.92;;;;;;;3.95;100.00;98323.97;5093053;28;20441;-66
2023/01/18 11:40:16;;;;;;;6.22;4.05;;;;;;;4.00;98.43;98313.72;5093194;28;20100;-66
2023/01/18 11:42:41;;;;;;;7.07;3.72;;;;;;;4.09;98.34;98313.47;5093187;28;20032;-64
2023/01/18 11:45:19;;;;;;;5.28;3.45;;;;;;;3.93;99.93;98324.16;5093057;28;20407;-65
2023/01/18 11:48:00;;;;;;;6.05;3.40;;;;;;;3.98;98.46;98321.81;5091545;28;20043;-64
2023/01/18 11:50:27;;;;;;;9.95;3.72;;;;;;;3.76;99.82;98333.19;5092845;28;20035;-65
2023/01/18 11:53:03;;;;;;;8.38;4.22;;;;;;;3.60;99.75;98335.94;5092897;28;20032;-65
2023/01/18 11:55:38;;;;;;;5.72;3.10;;;;;;;3.53;98.66;98335.81;5092806;28;20157;-64
2023/01/18 11:58:15;;;;;;;4.78;3.38;;;;;;;3.58;98.25;98336.09;5092588;28;20042;-65
2023/01/18 12:00:54;;;;;;;7.35;3.95;;;;;;;3.73;100.00;98338.81;5092744;28;20086;-65
2023/01/18 12:03:46;;;;;;;4.38;2.92;;;;;;;3.90;100.00;98331.59;5092381;28;20035;-65
2023/01/18 12:06:37;;;;;;;4.43;3.20;;;;;;;4.13;99.64;98340.31;5081309;28;20120;-67
2023/01/18 12:09:10;;;;;;;7.72;3.25;;;;;;;4.07;100.00;98344.47;5082676;28;20039;-66
2023/01/18 12:11:52;;;;;;;3.83;3.13;;;;;;;4.11;100.00;98349.34;5080622;28;20033;-66
2023/01/18 12:14:32;;;;;;;4.13;2.70;;;;;;;4.14;95.92;98356.94;5083874;28;20160;-65
2023/01/18 12:17:01;;;;;;;4.60;2.80;;;;;;;4.13;95.93;98357.94;5081886;28;20123;-65
2023/01/18 12:19:38;;;;;;;3.97;2.72;;;;;;;4.17;96.43;98354.72;5080828;28;20035;-67
2023/01/18 12:22:46;;;;;;;3.10;2.10;;;;;;;4.08;96.34;98369.81;5079802;28;20388;-66
2023/01/18 12:25:36;;;;;;;3.72;2.35;;;;;;;4.03;92.70;98366.88;5053662;28;20393;-66
2023/01/18 12:28:01;;;;;;;2.80;2.25;;;;;;;4.12;96.39;98361.56;5080608;28;20059;-66
2023/01/18 12:30:39;;;;;;;3.45;2.20;;;;;;;4.19;94.68;98365.13;5080000;28;20478;-66
2023/01/18 12:33:13;;;;;;;3.33;1.65;;;;;;;4.04;89.28;98371.19;5080858;28;20058;-66
2023/01/18 12:35:48;;;;;;;1.67;1.50;;;;;;;4.01;89.98;98374.16;5081790;28;20107;-66
2023/01/18 12:38:30;;;;;;;1.40;1.30;;;;;;;4.21;90.83;98371.84;5080758;28;20036;-66
2023/01/18 12:41:07;;;;;;;5.72;1.85;;;;;;;4.29;91.88;98377.03;5081644;28;20025;-67
2023/01/18 12:43:56;;;;;;;2.25;1.25;;;;;;;4.34;90.57;98372.06;5080848;28;20434;-65
2023/01/18 12:46:30;;;;;;;2.03;1.70;;;;;;;4.59;87.86;98375.28;5081896;28;20032;-66
2023/01/18 12:49:01;;;;;;;2.55;1.38;;;;;;;4.62;87.01;98382.81;5080693;28;20033;-66
2023/01/18 12:51:31;;;;;;;2.20;1.30;;;;;;;4.45;88.53;98386.63;5078923;28;20041;-67
2023/01/18 12:54:05;;;;;;;1.60;1.35;;;;;;;4.25;83.83;98396.03;5081502;28;20177;-67
2023/01/18 12:56:36;;;;;;;2.08;1.58;;;;;;;4.10;85.68;98403.88;5082340;28;20043;-67
2023/01/18 12:59:07;;;;;;;1.77;1.40;;;;;;;4.02;87.76;98396.88;5081449;28;20047;-67
2023/01/18 13:01:39;;;;;;;1.70;1.08;;;;;;;3.95;85.38;98403.00;5080401;28;20046;-67
2023/01/18 13:04:14;;;;;;;3.58;1.67;;;;;;;3.81;88.51;98404.59;5080547;28;20035;-67
2023/01/18 13:06:41;;;;;;;2.40;1.70;;;;;;;3.87;86.24;98410.97;5081429;28;20110;-66
2023/01/18 13:09:16;;;;;;;1.75;1.30;;;;;;;3.83;87.41;98409.69;5079706;28;20047;-67
2023/01/18 13:11:43;;;;;;;1.73;1.40;;;;;;;3.90;85.81;98414.06;5080446;28;20056;-67
2023/01/18 13:14:32;;;;;;;2.22;1.30;;;;;;;3.99;88.65;98412.22;5082326;28;20043;-67
2023/01/18 13:17:34;;;;;;;4.03;1.48;;;;;;;4.17;87.12;98414.53;5079519;28;20024;-68
2023/01/18 13:20:11;;;;;;;1.75;1.15;;;;;;;4.38;84.47;98424.44;5081222;28;20102;-68
2023/01/18 13:22:36;;;;;;;2.22;1.00;;;;;;;4.49;82.02;98419.53;5080816;28;20039;-67
2023/01/18 13:25:31;;;;;;;3.22;2.25;;;;;;;4.48;84.86;98427.63;5082736;28;20036;-67
2023/01/18 13:28:02;;;;;;;1.70;1.33;;;;;;;4.56;81.21;98427.56;5091240;28;20044;-67
2023/01/18 13:30:43;;;;;;;3.45;1.40;;;;;;;4.63;82.32;98434.59;5091357;28;20032;-67
2023/01/18 13:33:13;;;;;;;1.35;1.05;;;;;;;4.72;83.00;98429.22;5091473;28;20534;-67
2023/01/18 13:35:48;;;;;;;5.05;1.40;;;;;;;4.58;81.05;98436.94;5090878;28;20039;-67
2023/01/18 13:38:18;;;;;;;2.58;1.40;;;;;;;4.83;79.41;98442.81;5089812;28;20135;-66
2023/01/18 13:41:05;;;;;;;2.47;1.58;;;;;;;4.81;80.26;98442.16;5090065;28;20038;-66
2023/01/18 13:43:37;;;;;;;2.58;1.67;;;;;;;4.65;80.51;98454.69;5093844;28;20086;-66
2023/01/18 13:46:05;;;;;;;2.88;1.65;;;;;;;4.58;81.45;98454.59;5095544;28;20704;-66
2023/01/18 13:48:45;;;;;;;2.33;1.23;;;;;;;4.48;77.00;98467.19;5095885;28;20079;-66
2023/01/18 13:51:57;;;;;;;1.88;1.38;;;;;;;4.50;77.30;98468.66;5095341;28;20036;-67
2023/01/18 13:54:25;;;;;;;2.63;1.50;;;;;;;4.52;77.36;98474.56;5091873;28;20048;-67
2023/01/18 13:57:00;;;;;;;1.83;1.10;;;;;;;4.63;80.28;98479.44;5095056;28;20050;-67
2023/01/18 13:59:33;;;;;;;1.60;1.40;;;;;;;4.56;78.36;98483.78;5094760;28;20426;-66
2023/01/18 14:02:17;;;;;;;2.63;1.42;;;;;;;4.73;74.42;98488.91;5095319;28;20462;-66
2023/01/18 14:04:43;;;;;;;4.78;1.50;;;;;;;4.54;74.71;98495.47;5094955;28;20055;-66
2023/01/18 14:07:21;;;;;;;2.38;1.83;;;;;;;4.71;78.74;98497.00;5094786;28;20385;-67
2023/01/18 14:09:47;;;;;;;;;;;;;;;4.63;77.68;98500.53;5095368;28;20035;-66
2023/01/18 14:12:13;;;;;;;2.03;1.83;;;;;;;4.58;78.24;98500.22;5094807;28;19919;-67
2023/01/18 14:14:55;;;;;;;2.78;1.65;;;;;;;4.59;77.53;98503.69;5094817;28;20047;-67
2023/01/18 14:17:21;;;;;;;2.38;1.67;;;;;;;4.65;80.18;98512.72;5094663;28;20052;-67
2023/01/18 14:19:47;;;;;;;6.93;2.65;;;;;;;4.44;81.92;98508.91;5094775;28;20501;-66
2023/01/18 14:22:44;;;;;;;4.25;2.85;;;;;;;4.39;83.01;98513.88;5094733;28;20038;-67
2023/01/18 14:25:22;;;;;;;;;;;;;;;4.40;82.22;98512.88;5094953;28;20062;-66
2023/01/18 14:27:52;;;;;;;;;;;;;;;4.39;84.59;98519.16;5094921;28;20233;-67
2023/01/18 14:30:17;;;;;;;3.75;2.40;;;;;;;4.50;85.36;98526.66;5095419;28;20369;-67
2023/01/18 14:32:54;;;;;;;4.43;2.70;;;;;;;4.44;86.88;98527.38;5094504;28;20032;-66
2023/01/18 14:35:22;;;;;;;5.60;3.15;;;;;;;4.27;86.93;98541.66;5094343;28;20036;-67
2023/01/18 14:37:49;;;;;;;4.13;2.30;;;;;;;4.08;86.03;98543.72;5093952;28;20032;-66
2023/01/18 14:40:17;;;;;;;10.32;2.92;;;;;;;3.90;86.82;98540.50;5093122;28;20032;-66
2023/01/18 14:42:49;;;;;;;3.67;2.10;;;;;;;3.80;83.99;98537.28;5094353;28;20385;-64
2023/01/18 14:45:36;;;;;;;4.30;2.40;;;;;;;3.75;83.75;98539.59;5094228;28;20488;-65
2023/01/18 14:48:08;;;;;;;2.38;1.63;;;;;;;3.70;85.95;98540.09;5093985;28;20035;-65
2023/01/18 14:50:39;;;;;;;5.13;2.45;;;;;;;3.65;81.08;98546.88;5094167;28;20046;-65
2023/01/18 14:53:11;;;;;;;1.88;1.50;;;;;;;3.62;81.66;98553.31;5093694;28;20044;-65
2023/01/18 14:55:37;;;;;;;2.55;1.75;;;;;;;3.63;82.15;98554.94;5094329;28;20040;-65
2023/01/18 14:58:10;;;;;;;2.15;1.70;;;;;;;3.53;78.12;98568.31;5093910;28;20035;-66
2023/01/18 15:00:52;;;;;;;2.45;1.65;;;;;;;3.38;77.13;98562.09;5094087;28;20043;-66
2023/01/18 15:03:25;;;;;;;5.13;1.77;;;;;;;3.26;75.86;98566.91;5094285;28;20064;-65
2023/01/18 15:05:57;;;;;;;2.80;1.20;;;;;;;3.20;76.06;98572.03;5094032;28;20032;-66
2023/01/18 15:08:25;;;;;;;1.90;1.15;;;;;;;3.06;78.16;98577.94;5093632;28;20096;-65
2023/01/18 15:10:51;;;;;;;1.63;1.38;;;;;;;3.05;82.42;98582.38;5093770;28;20036;-65
2023/01/18 15:13:17;;;;;;;2.15;1.52;;;;;;;3.03;81.06;98591.44;5093908;28;20044;-65
2023/01/18 15:15:43;;;;;;;4.15;1.70;;;;;;;2.98;81.15;98592.72;5093964;28;20040;-65
2023/01/18 15:18:16;;;;;;;2.22;1.38;;;;;;;2.96;80.28;98599.16;5093523;28;20043;-65
2023/01/18 15:20:57;;;;;;;2.05;1.30;;;;;;;2.94;81.00;98607.22;5092491;28;20068;-66
2023/01/18 15:23:24;;;;;;;2.30;1.45;;;;;;;2.88;79.83;98614.94;5093564;28;20561;-66
2023/01/18 15:25:51;;;;;;;1.50;1.20;;;;;;;2.80;80.34;98613.09;5092305;28;20046;-66
2023/01/18 15:28:17;;;;;;;2.22;1.50;;;;;;;2.68;81.15;98623.16;5093076;28;20031;-66
2023/01/18 15:30:53;;;;;;;1.30;1.20;;;;;;;2.62;80.81;98625.59;5093260;28;20036;-65
2023/01/18 15:33:22;;;;;;;2.10;1.70;;;;;;;2.55;81.72;98629.84;5093197;28;20035;-65
2023/01/18 15:35:54;;;;;;;4.35;1.42;;;;;;;2.52;84.19;98632.78;5091955;28;20040;-66
2023/01/18 15:38:20;;;;;;;4.32;1.65;;;;;;;2.38;84.88;98636.88;5093011;28;20366;-66
2023/01/18 15:41:13;;;;;;;5.25;1.98;;;;;;;2.37;86.35;98637.84;5093158;28;20100;-66
2023/01/18 15:43:43;;;;;;;2.10;1.88;;;;;;;2.34;87.97;98641.59;5090734;28;20389;-65
2023/01/18 15:46:13;;;;;;;1.92;1.70;;;;;;;2.26;88.78;98651.28;5093084;28;20391;-65
2023/01/18 15:48:51;;;;;;;4.63;1.92;;;;;;;2.14;91.18;98650.72;5092614;28;20536;-65
2023/01/18 15:51:17;;;;;;;3.00;2.05;;;;;;;2.10;92.42;98658.13;5092934;28;20524;-65
2023/01/18 15:53:54;;;;;;;5.95;2.22;;;;;;;2.07;93.09;98654.97;5092833;28;20047;-65
2023/01/18 15:56:25;;;;;;;;;;;;;;;2.07;94.75;98654.97;5093381;28;20036;-64
2023/01/18 15:58:54;;;;;;;7.18;1.83;;;;;;;2.00;96.41;98661.84;5092572;28;20380;-64
2023/01/18 16:01:27;;;;;;;2.58;1.73;;;;;;;1.94;95.93;98659.84;5092988;28;20085;-65
2023/01/18 16:03:57;;;;;;;2.60;1.92;;;;;;;1.94;97.41;98667.72;5092760;28;20032;-64
2023/01/18 16:06:22;;;;;;;4.63;2.08;;;;;;;1.88;98.23;98669.97;5091897;28;20032;-65
2023/01/18 16:08:59;;;;;;;4.53;2.45;;;;;;;1.85;97.62;98677.38;5092248;28;20544;-65
2023/01/18 16:11:29;;;;;;;3.92;2.40;;;;;;;1.76;99.32;98680.91;5092417;28;20044;-66
2023/01/18 16:14:00;;;;;;;6.18;3.05;;;;;;;1.72;100.00;98683.03;5092788;28;20051;-64
2023/01/18 16:16:26;;;;;;;5.38;2.85;;;;;;;1.73;100.00;98683.84;5092721;28;20036;-65
2023/01/18 16:18:58;;;;;;;4.18;3.55;;;;;;;1.66;100.00;98685.47;5092091;28;20043;-65
2023/01/18 16:21:47;;;;;;;4.28;2.90;;;;;;;1.58;100.00;98694.09;5092395;28;20034;-66
2023/01/18 16:24:17;;;;;;;3.20;2.78;;;;;;;1.63;100.00;98694.47;5092236;28;20028;-66
2023/01/18 16:26:44;;;;;;;3.83;2.67;;;;;;;1.60;100.00;98700.00;5091107;28;20036;-65
2023/01/18 16:29:10;;;;;;;5.30;3.58;;;;;;;1.54;100.00;98696.19;5092008;28;20038;-65
2023/01/18 16:31:40;;;;;;;4.55;2.65;;;;;;;1.48;100.00;98703.84;5092236;28;20036;-65
2023/01/18 16:34:19;;;;;;;4.20;3.22;;;;;;;1.52;100.00;98707.84;5091953;28;20035;-65
2023/01/18 16:36:45;;;;;;;5.47;2.92;;;;;;;1.45;100.00;98712.88;5092187;28;20062;-65
2023/01/18 16:39:10;;;;;;;5.13;2.75;;;;;;;1.40;100.00;98712.50;5090601;28;20024;-65
2023/01/18 16:41:36;;;;;;;5.75;3.03;;;;;;;1.40;100.00;98716.91;5091877;28;20477;-65
2023/01/18 16:44:05;;;;;;;5.50;3.22;;;;;;;1.36;100.00;98721.63;5091969;28;20089;-65
2023/01/18 16:46:33;;;;;;;3.45;2.63;;;;;;;1.31;100.00;98727.34;5092110;28;20092;-65
2023/01/18 16:48:59;;;;;;;3.53;2.92;;;;;;;1.30;100.00;98735.34;5090425;28;20441;-65
2023/01/18 16:51:27;;;;;;;7.10;3.78;;;;;;;1.22;100.00;98730.88;5091914;28;20127;-65
2023/01/18 16:53:54;;;;;;;5.20;3.25;;;;;;;1.21;100.00;98739.72;5091824;28;20109;-65
2023/01/18 16:56:20;;;;;;;4.25;3.08;;;;;;;1.16;100.00;98744.59;5091768;28;20500;-64
2023/01/18 16:58:47;;;;;;;7.18;3.75;;;;;;;1.12;100.00;98747.69;5091484;28;20067;-65
2023/01/18 17:01:14;;;;;;;7.93;4.00;;;;;;;1.05;100.00;98750.91;5091791;28;20131;-65
2023/01/18 17:03:41;;;;;;;7.18;4.32;;;;;;;1.00;100.00;98757.56;5091719;28;20032;-66
2023/01/18 17:06:11;;;;;;;8.82;3.88;;;;;;;0.98;100.00;98762.13;5091642;28;20053;-66
2023/01/18 17:08:36;;;;;;;4.05;3.15;;;;;;;0.91;100.00;98772.34;5091867;28;20036;-68
2023/01/18 17:11:02;;;;;;;7.15;3.28;;;;;;;0.86;100.00;98774.63;5091462;28;20048;-68
2023/01/18 17:13:27;;;;;;;4.32;2.80;;;;;;;0.81;100.00;98780.28;5091424;28;20150;-68
2023/01/18 17:15:53;;;;;;;9.93;3.78;;;;;;;0.76;100.00;98772.03;5090255;28;20032;-68
2023/01/18 17:18:24;;;;;;;6.53;2.85;;;;;;;0.70;100.00;98788.34;5091015;28;20119;-68
2023/01/18 17:20:50;;;;;;;5.07;2.97;;;;;;;0.68;100.00;98795.53;5091591;28;20036;-68